createdAt,value
2024-03-03T00:00:06.978Z,9.74
2024-03-03T00:02:33.816Z,10.12
2024-03-03T00:05:00.735Z,9.72
2024-03-03T00:07:27.510Z,9.74
2024-03-03T00:09:54.161Z,10.19
2024-03-03T00:12:21.051Z,10.26
2024-03-03T00:14:47.901Z,10.07
2024-03-03T00:17:15.748Z,9.93
2024-03-03T00:19:42.805Z,9.67
2024-03-03T00:22:09.785Z,9.66
2024-03-03T00:24:36.677Z,9.70
2024-03-03T00:27:04.261Z,9.60
2024-03-03T00:29:31.208Z,9.97
2024-03-03T00:31:58.006Z,9.59
2024-03-03T00:34:24.805Z,9.72
2024-03-03T00:36:51.614Z,9.68
2024-03-03T00:39:18.998Z,9.91
2024-03-03T00:41:45.836Z,9.46
2024-03-03T00:44:12.688Z,9.60
2024-03-03T00:46:39.549Z,9.93
2024-03-03T00:49:06.513Z,9.33
2024-03-03T00:51:33.416Z,9.60
2024-03-03T00:54:00.243Z,9.71
2024-03-03T00:56:27.155Z,9.43
2024-03-03T00:58:54.068Z,8.84
2024-03-03T01:01:20.977Z,8.87
2024-03-03T01:03:47.849Z,9.30
2024-03-03T01:06:14.634Z,8.58
2024-03-03T01:08:41.562Z,9.37
2024-03-03T01:11:08.369Z,8.94
2024-03-03T01:13:35.697Z,9.26
2024-03-03T01:16:02.500Z,9.45
2024-03-03T01:18:30.871Z,8.82
2024-03-03T01:20:57.824Z,9.50
2024-03-03T01:23:24.663Z,9.63
2024-03-03T01:25:51.556Z,9.66
2024-03-03T01:28:18.374Z,9.68
2024-03-03T01:30:45.286Z,9.37
2024-03-03T01:33:12.298Z,9.04
2024-03-03T01:35:39.164Z,9.05
2024-03-03T01:38:06.038Z,8.86
2024-03-03T01:40:32.898Z,8.80
2024-03-03T01:42:59.762Z,9.42
2024-03-03T01:45:26.628Z,8.92
2024-03-03T01:47:54.195Z,9.04
2024-03-03T01:50:22.035Z,9.41
2024-03-03T01:52:49.832Z,8.69
2024-03-03T01:55:19.873Z,9.06
2024-03-03T01:57:47.976Z,8.98
2024-03-03T02:00:15.277Z,9.30
2024-03-03T02:02:42.497Z,8.90
2024-03-03T02:05:10.466Z,9.04
2024-03-03T02:07:37.327Z,9.35
2024-03-03T02:10:04.527Z,9.07
2024-03-03T02:12:31.326Z,9.35
2024-03-03T02:14:57.954Z,9.23
2024-03-03T02:17:24.894Z,9.21
2024-03-03T02:19:51.550Z,8.98
2024-03-03T02:22:18.467Z,9.19
2024-03-03T02:24:45.452Z,8.84
2024-03-03T02:27:12.582Z,8.27
2024-03-03T02:29:39.834Z,7.80
2024-03-03T02:32:06.803Z,7.67
2024-03-03T02:34:33.672Z,7.32
2024-03-03T02:37:00.519Z,7.35
2024-03-03T02:39:27.408Z,7.46
2024-03-03T02:41:54.198Z,6.81
2024-03-03T02:44:20.860Z,6.65
2024-03-03T02:46:49.714Z,6.86
2024-03-03T02:49:16.874Z,6.32
2024-03-03T02:51:44.648Z,7.07
2024-03-03T02:54:11.495Z,7.07
2024-03-03T02:56:38.330Z,7.09
2024-03-03T02:59:05.128Z,6.80
2024-03-03T03:01:31.858Z,7.34
2024-03-03T03:03:59.112Z,7.27
2024-03-03T03:06:25.999Z,7.21
2024-03-03T03:08:52.779Z,7.44
2024-03-03T03:11:19.411Z,7.48
2024-03-03T03:13:46.231Z,7.37
2024-03-03T03:16:12.996Z,7.36
2024-03-03T03:18:39.855Z,7.89
2024-03-03T03:21:07.650Z,7.73
2024-03-03T03:23:34.598Z,7.07
2024-03-03T03:26:01.789Z,6.94
2024-03-03T03:28:28.879Z,6.44
2024-03-03T03:30:55.782Z,6.74
2024-03-03T03:33:22.605Z,6.86
2024-03-03T03:35:49.202Z,6.78
2024-03-03T03:38:15.985Z,7.49
2024-03-03T03:40:42.690Z,7.28
2024-03-03T03:43:09.518Z,7.71
2024-03-03T03:45:36.368Z,7.61
2024-03-03T03:48:03.252Z,7.36
2024-03-03T03:50:30.103Z,7.68
2024-03-03T03:52:56.897Z,8.32
2024-03-03T03:55:23.580Z,7.99
2024-03-03T03:57:50.471Z,8.63
2024-03-03T04:00:17.712Z,8.50
2024-03-03T04:02:44.496Z,8.30
2024-03-03T04:05:11.254Z,8.41
2024-03-03T04:07:38.860Z,8.29
2024-03-03T04:10:06.873Z,8.00
2024-03-03T04:12:33.832Z,8.20
2024-03-03T04:15:00.639Z,8.09
2024-03-03T04:17:27.424Z,8.36
2024-03-03T04:19:54.411Z,8.10
2024-03-03T04:22:22.122Z,8.20
2024-03-03T04:24:49.132Z,8.40
2024-03-03T04:27:16.055Z,8.64
2024-03-03T04:29:46.792Z,8.85
2024-03-03T04:32:13.605Z,9.05
2024-03-03T04:34:41.500Z,8.89
2024-03-03T04:37:08.737Z,8.92
2024-03-03T04:39:38.096Z,9.11
2024-03-03T04:42:05.653Z,8.93
2024-03-03T04:44:32.823Z,8.78
2024-03-03T04:46:59.692Z,8.68
2024-03-03T04:49:26.578Z,9.31
2024-03-03T04:51:53.405Z,9.37
2024-03-03T04:54:20.263Z,9.10
2024-03-03T04:56:47.048Z,8.74
2024-03-03T04:59:13.686Z,8.48
2024-03-03T05:01:43.598Z,8.05
2024-03-03T05:04:11.540Z,8.49
2024-03-03T05:06:47.694Z,8.50
2024-03-03T05:09:14.529Z,8.60
2024-03-03T05:11:41.147Z,8.47
2024-03-03T05:14:07.962Z,7.91
2024-03-03T05:16:34.852Z,8.80
2024-03-03T05:19:01.757Z,8.40
2024-03-03T05:21:29.606Z,9.46
2024-03-03T05:23:56.438Z,9.10
2024-03-03T05:26:24.692Z,8.68
2024-03-03T05:28:51.824Z,8.67
2024-03-03T05:31:18.872Z,8.58
2024-03-03T05:33:45.813Z,8.07
2024-03-03T05:36:14.933Z,8.57
2024-03-03T05:38:41.885Z,8.78
2024-03-03T05:41:08.743Z,8.82
2024-03-03T05:43:35.542Z,8.66
2024-03-03T05:46:02.273Z,8.98
2024-03-03T05:48:29.918Z,8.80
2024-03-03T05:50:57.036Z,8.65
2024-03-03T05:53:23.868Z,8.47
2024-03-03T05:55:50.725Z,8.85
2024-03-03T05:58:17.637Z,8.49
2024-03-03T06:00:44.569Z,8.38
2024-03-03T06:03:11.438Z,8.17
2024-03-03T06:05:38.041Z,8.28
2024-03-03T06:08:05.161Z,8.27
2024-03-03T06:10:32.005Z,8.49
2024-03-03T06:12:58.850Z,8.53
2024-03-03T06:15:25.497Z,8.35
2024-03-03T06:17:52.360Z,8.61
2024-03-03T06:20:19.179Z,8.29
2024-03-03T06:22:45.840Z,8.34
2024-03-03T06:25:12.742Z,8.68
2024-03-03T06:27:39.782Z,8.08
2024-03-03T06:30:09.105Z,8.15
2024-03-03T06:32:36.084Z,8.40
2024-03-03T06:35:03.048Z,8.60
2024-03-03T06:37:32.325Z,8.22
2024-03-03T06:40:00.213Z,8.51
2024-03-03T06:42:27.233Z,9.13
2024-03-03T06:44:54.018Z,9.16
2024-03-03T06:47:20.694Z,8.82
2024-03-03T06:49:47.509Z,8.89
2024-03-03T06:52:14.286Z,9.05
2024-03-03T06:54:41.317Z,9.34
2024-03-03T06:57:08.555Z,9.67
2024-03-03T06:59:35.518Z,10.31
2024-03-03T07:02:02.431Z,10.04
2024-03-03T07:04:29.583Z,9.81
2024-03-03T07:06:56.926Z,9.42
2024-03-03T07:09:24.546Z,9.49
2024-03-03T07:11:52.488Z,9.27
2024-03-03T07:14:20.424Z,9.11
2024-03-03T07:16:47.823Z,9.09
2024-03-03T07:19:14.808Z,8.70
2024-03-03T07:21:41.731Z,8.61
2024-03-03T07:24:08.911Z,9.45
2024-03-03T07:26:35.735Z,9.73
2024-03-03T07:29:04.276Z,9.72
2024-03-03T07:31:31.565Z,10.15
2024-03-03T07:33:58.544Z,10.08
2024-03-03T07:36:25.508Z,10.23
2024-03-03T07:38:52.332Z,10.44
2024-03-03T07:41:19.181Z,10.95
2024-03-03T07:43:47.479Z,10.91
2024-03-03T07:46:14.455Z,9.90
2024-03-03T07:48:41.761Z,10.77
2024-03-03T07:51:08.630Z,10.78
2024-03-03T07:53:35.493Z,11.37
2024-03-03T07:56:02.578Z,12.74
2024-03-03T07:58:29.448Z,13.09
2024-03-03T08:00:56.365Z,14.51
2024-03-03T08:03:23.501Z,14.77
2024-03-03T08:05:50.338Z,16.29
2024-03-03T08:08:17.210Z,16.15
2024-03-03T08:10:43.977Z,16.86
2024-03-03T08:13:11.542Z,16.68
2024-03-03T08:15:38.464Z,17.40
2024-03-03T08:18:05.431Z,16.32
2024-03-03T08:20:32.346Z,16.55
2024-03-03T08:22:59.178Z,15.40
2024-03-03T08:25:26.416Z,15.31
2024-03-03T08:27:54.065Z,14.75
2024-03-03T08:30:21.462Z,15.20
2024-03-03T08:32:48.399Z,16.45
2024-03-03T08:35:16.048Z,17.32
2024-03-03T08:37:45.972Z,17.54
2024-03-03T08:40:13.189Z,17.59
2024-03-03T08:42:40.078Z,17.27
2024-03-03T08:45:07.514Z,17.16
2024-03-03T08:47:34.574Z,17.54
2024-03-03T08:50:01.631Z,17.43
2024-03-03T08:52:28.512Z,17.36
2024-03-03T08:54:56.077Z,17.67
2024-03-03T08:57:25.343Z,18.02
2024-03-03T08:59:52.750Z,18.39
2024-03-03T09:02:19.829Z,18.51
2024-03-03T09:04:46.678Z,18.90
2024-03-03T09:07:13.674Z,18.26
2024-03-03T09:09:42.736Z,18.18
2024-03-03T09:12:11.257Z,17.73
2024-03-03T09:14:39.055Z,17.39
2024-03-03T09:17:06.191Z,17.00
2024-03-03T09:19:33.300Z,17.50
2024-03-03T09:22:00.496Z,17.40
2024-03-03T09:24:27.785Z,17.14
2024-03-03T09:26:54.664Z,17.14
2024-03-03T09:29:24.942Z,16.54
2024-03-03T09:31:55.504Z,16.80
2024-03-03T09:34:23.616Z,16.39
2024-03-03T09:36:50.892Z,16.57
2024-03-03T09:39:18.119Z,16.35
2024-03-03T09:41:45.218Z,16.53
2024-03-03T09:44:18.440Z,17.18
2024-03-03T09:46:46.111Z,17.29
2024-03-03T09:49:18.915Z,16.74
2024-03-03T09:51:46.907Z,16.40
2024-03-03T09:54:20.203Z,16.57
2024-03-03T09:56:49.015Z,16.78
2024-03-03T09:59:17.526Z,17.03
2024-03-03T10:01:53.125Z,17.08
2024-03-03T10:04:20.429Z,16.78
2024-03-03T10:06:53.344Z,16.22
2024-03-03T10:09:20.642Z,16.76
2024-03-03T10:11:48.192Z,16.88
2024-03-03T10:14:15.445Z,17.02
2024-03-03T10:16:42.409Z,17.17
2024-03-03T10:19:09.389Z,16.70
2024-03-03T10:21:37.598Z,16.99
2024-03-03T10:24:25.456Z,17.02
2024-03-03T10:26:57.203Z,17.46
2024-03-03T10:29:27.103Z,17.91
2024-03-03T10:31:54.752Z,17.96
2024-03-03T10:34:24.304Z,17.50
2024-03-03T10:37:04.780Z,16.84
2024-03-03T10:39:39.801Z,16.83
2024-03-03T10:42:11.254Z,16.34
2024-03-03T10:44:38.599Z,17.40
2024-03-03T10:47:11.884Z,17.67
2024-03-03T10:49:42.307Z,17.73
2024-03-03T10:52:11.025Z,17.56
2024-03-03T10:54:42.485Z,18.20
2024-03-03T10:57:15.483Z,18.33
2024-03-03T10:59:42.727Z,17.90
2024-03-03T11:02:13.557Z,17.50
2024-03-03T11:04:40.694Z,17.60
2024-03-03T11:07:07.607Z,17.66
2024-03-03T11:09:34.842Z,17.83
2024-03-03T11:12:05.729Z,17.48
2024-03-03T11:14:58.901Z,17.73
2024-03-03T11:17:29.173Z,17.83
2024-03-03T11:19:58.909Z,17.91
2024-03-03T11:22:26.381Z,18.49
2024-03-03T11:24:55.240Z,18.88
2024-03-03T11:27:27.807Z,19.28
2024-03-03T11:29:55.415Z,18.97
2024-03-03T11:32:25.442Z,18.99
2024-03-03T11:34:52.893Z,18.73
2024-03-03T11:37:20.256Z,18.96
2024-03-03T11:39:57.287Z,18.65
2024-03-03T11:42:33.070Z,18.21
2024-03-03T11:45:03.629Z,18.45
2024-03-03T11:47:31.752Z,18.50
2024-03-03T11:49:59.210Z,18.40
2024-03-03T11:52:43.210Z,18.05
2024-03-03T11:55:18.076Z,18.19
2024-03-03T11:57:45.752Z,18.01
2024-03-03T12:00:17.208Z,18.20
2024-03-03T12:02:45.316Z,18.18
2024-03-03T12:05:13.646Z,18.19
2024-03-03T12:07:49.274Z,18.13
2024-03-03T12:10:18.031Z,18.29
2024-03-03T12:12:48.507Z,18.28
2024-03-03T12:15:19.067Z,18.14
2024-03-03T12:17:52.486Z,18.00
2024-03-03T12:20:22.009Z,17.95
2024-03-03T12:22:50.800Z,18.37
2024-03-03T12:25:20.350Z,18.91
2024-03-03T12:27:54.976Z,19.02
2024-03-03T12:30:35.628Z,18.78
2024-03-03T12:33:05.098Z,19.04
2024-03-03T12:35:31.972Z,19.00
2024-03-03T12:37:59.149Z,18.78
2024-03-03T12:40:26.656Z,18.86
2024-03-03T12:42:53.649Z,18.64
2024-03-03T12:45:20.899Z,18.50
2024-03-03T12:47:48.857Z,18.70
2024-03-03T12:50:17.831Z,18.20
2024-03-03T12:52:45.813Z,18.25
2024-03-03T12:55:13.485Z,18.23
2024-03-03T12:57:44.919Z,18.69
2024-03-03T13:00:15.833Z,19.14
2024-03-03T13:02:44.415Z,18.98
2024-03-03T13:05:13.754Z,18.44
2024-03-03T13:07:50.168Z,18.53
2024-03-03T13:10:22.093Z,18.03
2024-03-03T13:12:52.444Z,18.15
2024-03-03T13:15:20.854Z,17.42
2024-03-03T13:18:10.607Z,17.66
2024-03-03T13:20:38.226Z,17.87
2024-03-03T13:23:15.251Z,17.83
2024-03-03T13:25:45.385Z,17.66
2024-03-03T13:28:14.611Z,18.12
2024-03-03T13:30:43.185Z,17.42
2024-03-03T13:33:10.059Z,17.14
2024-03-03T13:35:36.859Z,17.05
2024-03-03T13:38:04.113Z,16.93
2024-03-03T13:40:31.122Z,16.63
2024-03-03T13:42:57.977Z,16.65
2024-03-03T13:45:24.781Z,16.79
2024-03-03T13:47:51.708Z,16.62
2024-03-03T13:50:18.579Z,16.44
2024-03-03T13:52:45.487Z,16.43
2024-03-03T13:55:12.367Z,16.69
2024-03-03T13:57:39.304Z,16.74
2024-03-03T14:00:13.583Z,16.43
2024-03-03T14:02:41.621Z,16.52
2024-03-03T14:05:08.466Z,16.55
2024-03-03T14:07:35.457Z,16.34
2024-03-03T14:10:02.417Z,16.54
2024-03-03T14:12:29.273Z,16.31
2024-03-03T14:14:56.074Z,16.32
2024-03-03T14:17:22.889Z,16.48
2024-03-03T14:19:49.696Z,16.55
2024-03-03T14:22:16.514Z,16.46
2024-03-03T14:24:43.802Z,16.59
2024-03-03T14:27:10.779Z,16.41
2024-03-03T14:29:38.132Z,16.44
2024-03-03T14:32:05.248Z,16.51
2024-03-03T14:34:32.071Z,16.63
2024-03-03T14:36:59.401Z,16.77
2024-03-03T14:39:27.275Z,17.21
2024-03-03T14:41:54.190Z,17.23
2024-03-03T14:44:21.156Z,16.98
2024-03-03T14:46:48.043Z,17.16
2024-03-03T14:49:15.032Z,17.25
2024-03-03T14:51:41.917Z,17.17
2024-03-03T14:54:11.399Z,17.22
2024-03-03T14:56:39.748Z,16.96
2024-03-03T14:59:06.643Z,16.88
2024-03-03T15:01:34.946Z,16.80
2024-03-03T15:04:02.867Z,16.69
2024-03-03T15:06:29.726Z,16.51
2024-03-03T15:08:56.627Z,16.53
2024-03-03T15:11:23.490Z,16.68
2024-03-03T15:13:50.356Z,16.47
2024-03-03T15:16:17.145Z,16.64
2024-03-03T15:18:44.036Z,16.91
2024-03-03T15:21:11.160Z,16.83
2024-03-03T15:23:41.248Z,16.86
2024-03-03T15:26:08.421Z,16.60
2024-03-03T15:28:35.321Z,16.69
2024-03-03T15:31:03.914Z,16.41
2024-03-03T15:33:31.909Z,16.57
2024-03-03T15:36:00.018Z,16.70
2024-03-03T15:38:29.812Z,16.55
2024-03-03T15:40:56.734Z,16.37
2024-03-03T15:43:23.681Z,16.27
2024-03-03T15:45:50.604Z,16.11
2024-03-03T15:48:17.570Z,16.25
2024-03-03T15:50:44.466Z,16.12
2024-03-03T15:53:11.358Z,16.15
2024-03-03T15:55:39.236Z,15.96
2024-03-03T15:58:06.413Z,15.75
2024-03-03T16:00:33.783Z,15.97
2024-03-03T16:03:03.503Z,15.78
2024-03-03T16:05:32.610Z,15.78
2024-03-03T16:07:59.551Z,15.61
2024-03-03T16:10:26.879Z,15.71
2024-03-03T16:12:53.711Z,15.52
2024-03-03T16:15:20.548Z,15.60
2024-03-03T16:17:47.791Z,15.40
2024-03-03T16:20:16.399Z,15.64
2024-03-03T16:22:44.493Z,15.39
2024-03-03T16:25:11.595Z,15.29
2024-03-03T16:27:39.034Z,15.52
2024-03-03T16:30:06.665Z,15.31
2024-03-03T16:32:33.468Z,15.42
2024-03-03T16:35:00.369Z,15.27
2024-03-03T16:37:27.185Z,15.56
2024-03-03T16:39:55.520Z,15.16
2024-03-03T16:42:22.549Z,15.28
2024-03-03T16:44:49.399Z,15.30
2024-03-03T16:47:16.241Z,15.30
2024-03-03T16:49:43.137Z,15.10
2024-03-03T16:52:09.999Z,15.07
2024-03-03T16:54:39.283Z,15.07
2024-03-03T16:57:06.707Z,15.08
2024-03-03T16:59:33.506Z,14.97
2024-03-03T17:02:00.438Z,15.01
2024-03-03T17:04:27.553Z,14.89
2024-03-03T17:06:54.701Z,14.69
2024-03-03T17:09:21.524Z,14.90
2024-03-03T17:11:48.316Z,14.75
2024-03-03T17:14:15.093Z,14.77
2024-03-03T17:16:42.014Z,14.83
2024-03-03T17:19:09.718Z,14.70
2024-03-03T17:21:36.568Z,15.10
2024-03-03T17:24:03.718Z,14.75
2024-03-03T17:26:31.858Z,14.74
2024-03-03T17:28:58.718Z,14.71
2024-03-03T17:31:25.600Z,14.73
2024-03-03T17:33:53.201Z,14.69
2024-03-03T17:36:22.644Z,14.65
2024-03-03T17:38:51.185Z,14.81
2024-03-03T17:41:18.046Z,14.93
2024-03-03T17:43:44.888Z,14.64
2024-03-03T17:46:14.257Z,14.39
2024-03-03T17:48:41.522Z,13.92
2024-03-03T17:51:08.326Z,13.97
2024-03-03T17:53:35.135Z,14.30
2024-03-03T17:56:05.802Z,14.13
2024-03-03T17:58:32.947Z,13.74
2024-03-03T18:00:59.982Z,14.14
2024-03-03T18:03:26.875Z,14.43
2024-03-03T18:05:53.750Z,14.46
2024-03-03T18:08:20.950Z,14.65
2024-03-03T18:10:47.806Z,14.74
2024-03-03T18:13:14.663Z,14.45
2024-03-03T18:15:41.420Z,14.41
2024-03-03T18:18:09.987Z,14.59
2024-03-03T18:20:36.760Z,13.90
2024-03-03T18:23:03.489Z,14.40
2024-03-03T18:25:30.356Z,14.61
2024-03-03T18:27:57.707Z,14.12
2024-03-03T18:30:24.677Z,14.39
2024-03-03T18:32:52.738Z,14.59
2024-03-03T18:35:21.576Z,14.48
2024-03-03T18:37:49.049Z,14.19
2024-03-03T18:40:17.801Z,14.27
2024-03-03T18:42:48.409Z,14.09
2024-03-03T18:45:15.482Z,13.93
2024-03-03T18:47:42.315Z,14.29
2024-03-03T18:50:09.235Z,13.95
2024-03-03T18:52:36.441Z,13.90
2024-03-03T18:55:05.473Z,14.02
2024-03-03T18:57:34.465Z,14.00
2024-03-03T19:00:01.330Z,13.90
2024-03-03T19:02:28.115Z,14.16
2024-03-03T19:04:54.974Z,13.97
2024-03-03T19:07:21.998Z,14.50
2024-03-03T19:09:48.951Z,14.00
2024-03-03T19:12:15.761Z,14.58
2024-03-03T19:14:42.719Z,14.14
2024-03-03T19:17:09.712Z,13.32
2024-03-03T19:19:37.882Z,12.23
2024-03-03T19:22:04.976Z,12.18
2024-03-03T19:24:33.489Z,11.57
2024-03-03T19:27:00.384Z,11.97
2024-03-03T19:29:28.519Z,12.35
2024-03-03T19:31:55.311Z,12.78
2024-03-03T19:34:22.839Z,13.39
2024-03-03T19:36:49.722Z,13.03
2024-03-03T19:39:16.753Z,12.64
2024-03-03T19:41:43.626Z,12.34
2024-03-03T19:44:11.221Z,12.35
2024-03-03T19:46:41.589Z,12.38
2024-03-03T19:49:10.415Z,12.31
2024-03-03T19:51:37.245Z,12.38
2024-03-03T19:54:04.229Z,12.43
2024-03-03T19:56:31.111Z,12.15
2024-03-03T19:58:58.062Z,11.97
2024-03-03T20:01:25.543Z,12.19
2024-03-03T20:03:53.693Z,12.43
2024-03-03T20:06:20.535Z,12.22
2024-03-03T20:08:47.526Z,11.90
2024-03-03T20:11:14.464Z,11.62
2024-03-03T20:13:41.416Z,11.91
2024-03-03T20:16:11.976Z,12.11
2024-03-03T20:18:42.487Z,11.67
2024-03-03T20:21:09.595Z,11.47
2024-03-03T20:23:36.545Z,11.59
2024-03-03T20:26:04.124Z,11.57
2024-03-03T20:28:31.551Z,10.72
2024-03-03T20:30:58.455Z,10.54
2024-03-03T20:33:25.378Z,11.09
2024-03-03T20:35:53.472Z,10.86
2024-03-03T20:38:21.362Z,10.78
2024-03-03T20:40:48.229Z,10.92
2024-03-03T20:43:15.889Z,10.88
2024-03-03T20:45:42.943Z,10.87
2024-03-03T20:48:11.238Z,10.48
2024-03-03T20:50:38.064Z,10.76
2024-03-03T20:53:05.327Z,10.45
2024-03-03T20:55:32.443Z,10.02
2024-03-03T20:58:00.314Z,10.27
2024-03-03T21:00:28.410Z,10.13
2024-03-03T21:02:55.442Z,10.36
2024-03-03T21:05:22.869Z,9.75
2024-03-03T21:07:49.667Z,10.06
2024-03-03T21:10:16.448Z,10.17
2024-03-03T21:12:44.569Z,10.17
2024-03-03T21:15:11.372Z,9.99
2024-03-03T21:17:38.093Z,9.90
2024-03-03T21:20:05.720Z,9.88
2024-03-03T21:22:32.640Z,9.93
2024-03-03T21:24:59.533Z,9.85
2024-03-03T21:27:26.637Z,10.12
2024-03-03T21:29:53.293Z,10.19
2024-03-03T21:32:20.254Z,9.91
2024-03-03T21:34:47.032Z,9.75
2024-03-03T21:37:13.767Z,9.67
2024-03-03T21:39:40.662Z,10.07
2024-03-03T21:42:08.491Z,9.95
2024-03-03T21:44:35.453Z,9.80
2024-03-03T21:47:02.306Z,9.52
2024-03-03T21:49:29.366Z,9.24
2024-03-03T21:51:56.227Z,9.01
2024-03-03T21:54:23.069Z,8.97
2024-03-03T21:56:49.704Z,8.75
2024-03-03T21:59:16.560Z,8.98
2024-03-03T22:01:52.386Z,8.10
2024-03-03T22:04:26.871Z,8.16
2024-03-03T22:06:53.904Z,8.54
2024-03-03T22:09:20.789Z,8.63
2024-03-03T22:11:47.504Z,8.47
2024-03-03T22:14:14.787Z,8.78
2024-03-03T22:16:41.579Z,8.89
2024-03-03T22:19:08.308Z,8.75
2024-03-03T22:21:35.145Z,9.34
2024-03-03T22:24:03.733Z,9.11
2024-03-03T22:26:30.875Z,9.34
2024-03-03T22:28:57.760Z,9.25
2024-03-03T22:31:24.656Z,9.21
2024-03-03T22:33:51.638Z,9.05
2024-03-03T22:36:18.472Z,8.72
2024-03-03T22:38:45.548Z,8.74
2024-03-03T22:41:14.090Z,8.89
2024-03-03T22:43:41.011Z,9.25
2024-03-03T22:46:07.958Z,9.13
2024-03-03T22:48:34.788Z,9.48
2024-03-03T22:51:01.483Z,9.49
2024-03-03T22:53:28.253Z,9.16
2024-03-03T22:55:54.952Z,8.98
2024-03-03T22:58:22.080Z,9.11
2024-03-03T23:00:49.064Z,8.56
2024-03-03T23:03:15.984Z,8.81
2024-03-03T23:05:42.847Z,7.90
2024-03-03T23:08:09.886Z,8.23
2024-03-03T23:10:36.983Z,7.69
2024-03-03T23:13:04.626Z,7.97
2024-03-03T23:15:31.519Z,7.61
2024-03-03T23:17:58.381Z,8.06
2024-03-03T23:20:25.369Z,8.74
2024-03-03T23:22:52.299Z,8.80
2024-03-03T23:25:19.298Z,8.01
2024-03-03T23:27:46.160Z,8.36
2024-03-03T23:30:16.173Z,8.38
2024-03-03T23:32:45.093Z,8.47
2024-03-03T23:35:13.727Z,8.52
2024-03-03T23:37:40.547Z,8.66
2024-03-03T23:40:11.381Z,8.59
2024-03-03T23:42:38.348Z,8.94
2024-03-03T23:45:05.167Z,9.22
2024-03-03T23:47:32.040Z,8.84
2024-03-03T23:49:58.871Z,8.54
2024-03-03T23:52:25.551Z,8.50
2024-03-03T23:54:52.463Z,8.29
2024-03-03T23:57:19.438Z,8.99
2024-03-03T23:59:46.237Z,8.84
